sensor_id;sensor_type;location;lat;lon;timestamp;temperature;humidity
7708;DHT22;3896;48.758;8.888;2023-02-27T00:00:57;-0.60;67.10
7708;DHT22;3896;48.758;8.888;2023-02-27T00:03:24;-0.70;67.00
7708;DHT22;3896;48.758;8.888;2023-02-27T00:05:49;-0.70;67.10
7708;DHT22;3896;48.758;8.888;2023-02-27T00:08:15;-0.70;67.30
7708;DHT22;3896;48.758;8.888;2023-02-27T00:10:40;-0.80;67.30
7708;DHT22;3896;48.758;8.888;2023-02-27T00:13:06;-0.80;67.50
7708;DHT22;3896;48.758;8.888;2023-02-27T00:15:32;-0.80;67.70
7708;DHT22;3896;48.758;8.888;2023-02-27T00:17:58;-0.80;67.90
7708;DHT22;3896;48.758;8.888;2023-02-27T00:20:26;-0.90;67.90
7708;DHT22;3896;48.758;8.888;2023-02-27T00:22:53;-0.90;68.10
7708;DHT22;3896;48.758;8.888;2023-02-27T00:25:18;-0.90;68.30
7708;DHT22;3896;48.758;8.888;2023-02-27T00:27:44;-0.90;68.30
7708;DHT22;3896;48.758;8.888;2023-02-27T00:30:11;-0.90;68.30
7708;DHT22;3896;48.758;8.888;2023-02-27T00:32:38;-1.00;68.50
7708;DHT22;3896;48.758;8.888;2023-02-27T00:35:06;-1.00;68.60
7708;DHT22;3896;48.758;8.888;2023-02-27T00:37:32;-1.00;68.90
7708;DHT22;3896;48.758;8.888;2023-02-27T00:39:58;-1.00;68.90
7708;DHT22;3896;48.758;8.888;2023-02-27T00:42:24;-1.00;69.00
7708;DHT22;3896;48.758;8.888;2023-02-27T00:44:50;-1.10;69.10
7708;DHT22;3896;48.758;8.888;2023-02-27T00:47:15;-1.10;69.20
7708;DHT22;3896;48.758;8.888;2023-02-27T00:49:41;-1.10;69.20
7708;DHT22;3896;48.758;8.888;2023-02-27T00:52:06;-1.10;69.40
7708;DHT22;3896;48.758;8.888;2023-02-27T00:54:32;-1.10;69.60
7708;DHT22;3896;48.758;8.888;2023-02-27T00:56:57;-1.10;69.70
7708;DHT22;3896;48.758;8.888;2023-02-27T00:59:23;-1.10;69.90
7708;DHT22;3896;48.758;8.888;2023-02-27T01:01:48;-1.20;69.90
7708;DHT22;3896;48.758;8.888;2023-02-27T01:04:14;-1.20;70.10
7708;DHT22;3896;48.758;8.888;2023-02-27T01:06:39;-1.20;70.20
7708;DHT22;3896;48.758;8.888;2023-02-27T01:09:06;-1.20;70.20
7708;DHT22;3896;48.758;8.888;2023-02-27T01:11:31;-1.20;70.50
7708;DHT22;3896;48.758;8.888;2023-02-27T01:13:57;-1.30;70.30
7708;DHT22;3896;48.758;8.888;2023-02-27T01:16:23;-1.20;70.60
7708;DHT22;3896;48.758;8.888;2023-02-27T01:18:48;-1.30;70.50
7708;DHT22;3896;48.758;8.888;2023-02-27T01:21:14;-1.30;70.60
7708;DHT22;3896;48.758;8.888;2023-02-27T01:23:40;-1.30;70.60
7708;DHT22;3896;48.758;8.888;2023-02-27T01:26:05;-1.30;71.00
7708;DHT22;3896;48.758;8.888;2023-02-27T01:28:31;-1.30;71.00
7708;DHT22;3896;48.758;8.888;2023-02-27T01:30:56;-1.30;71.00
7708;DHT22;3896;48.758;8.888;2023-02-27T01:33:22;-1.40;71.10
7708;DHT22;3896;48.758;8.888;2023-02-27T01:35:47;-1.40;71.10
7708;DHT22;3896;48.758;8.888;2023-02-27T01:38:13;-1.40;71.30
7708;DHT22;3896;48.758;8.888;2023-02-27T01:40:40;-1.40;71.50
7708;DHT22;3896;48.758;8.888;2023-02-27T01:43:09;-1.40;71.60
7708;DHT22;3896;48.758;8.888;2023-02-27T01:45:39;-1.40;71.80
7708;DHT22;3896;48.758;8.888;2023-02-27T01:48:15;-1.50;71.80
7708;DHT22;3896;48.758;8.888;2023-02-27T01:50:47;-1.50;71.90
7708;DHT22;3896;48.758;8.888;2023-02-27T01:53:14;-1.50;71.90
7708;DHT22;3896;48.758;8.888;2023-02-27T01:55:41;-1.50;72.10
7708;DHT22;3896;48.758;8.888;2023-02-27T01:58:09;-1.50;72.10
7708;DHT22;3896;48.758;8.888;2023-02-27T02:00:37;-1.50;72.30
7708;DHT22;3896;48.758;8.888;2023-02-27T02:05:32;-1.50;72.60
7708;DHT22;3896;48.758;8.888;2023-02-27T02:07:59;-1.60;72.50
7708;DHT22;3896;48.758;8.888;2023-02-27T02:10:25;-1.60;72.80
7708;DHT22;3896;48.758;8.888;2023-02-27T02:12:51;-1.60;73.00
7708;DHT22;3896;48.758;8.888;2023-02-27T02:15:17;-1.60;73.00
7708;DHT22;3896;48.758;8.888;2023-02-27T02:26:15;-1.70;73.30
7708;DHT22;3896;48.758;8.888;2023-02-27T02:32:11;-1.70;73.60
7708;DHT22;3896;48.758;8.888;2023-02-27T02:34:59;-1.70;73.60
7708;DHT22;3896;48.758;8.888;2023-02-27T02:40:42;-1.80;73.80
7708;DHT22;3896;48.758;8.888;2023-02-27T02:45:55;-1.80;74.10
7708;DHT22;3896;48.758;8.888;2023-02-27T02:48:37;-1.80;74.20
7708;DHT22;3896;48.758;8.888;2023-02-27T02:53:59;-1.90;74.50
7708;DHT22;3896;48.758;8.888;2023-02-27T02:56:48;-1.90;74.80
7708;DHT22;3896;48.758;8.888;2023-02-27T02:59:43;-1.90;74.70
7708;DHT22;3896;48.758;8.888;2023-02-27T03:02:11;-1.90;75.00
7708;DHT22;3896;48.758;8.888;2023-02-27T03:04:48;-2.00;74.90
7708;DHT22;3896;48.758;8.888;2023-02-27T03:07:21;-1.90;75.30
7708;DHT22;3896;48.758;8.888;2023-02-27T03:10:16;-2.00;75.40
7708;DHT22;3896;48.758;8.888;2023-02-27T03:12:59;-2.00;75.50
7708;DHT22;3896;48.758;8.888;2023-02-27T03:15:30;-2.00;75.70
7708;DHT22;3896;48.758;8.888;2023-02-27T03:18:11;-2.00;75.80
7708;DHT22;3896;48.758;8.888;2023-02-27T03:20:49;-2.00;76.00
7708;DHT22;3896;48.758;8.888;2023-02-27T03:23:19;-2.10;75.90
7708;DHT22;3896;48.758;8.888;2023-02-27T03:25:49;-2.10;76.20
7708;DHT22;3896;48.758;8.888;2023-02-27T03:28:24;-2.10;76.30
7708;DHT22;3896;48.758;8.888;2023-02-27T03:30:56;-2.10;76.50
7708;DHT22;3896;48.758;8.888;2023-02-27T03:33:30;-2.00;76.70
7708;DHT22;3896;48.758;8.888;2023-02-27T03:36:08;-2.10;76.60
7708;DHT22;3896;48.758;8.888;2023-02-27T03:44:09;-2.20;76.60
7708;DHT22;3896;48.758;8.888;2023-02-27T03:46:36;-2.20;76.80
7708;DHT22;3896;48.758;8.888;2023-02-27T03:49:02;-2.20;76.90
7708;DHT22;3896;48.758;8.888;2023-02-27T03:51:28;-2.20;77.20
7708;DHT22;3896;48.758;8.888;2023-02-27T03:56:28;-2.20;77.40
7708;DHT22;3896;48.758;8.888;2023-02-27T03:58:55;-2.20;77.40
7708;DHT22;3896;48.758;8.888;2023-02-27T04:01:22;-2.20;77.50
7708;DHT22;3896;48.758;8.888;2023-02-27T04:03:56;-2.20;77.80
7708;DHT22;3896;48.758;8.888;2023-02-27T04:06:23;-2.30;77.90
7708;DHT22;3896;48.758;8.888;2023-02-27T04:09:46;-2.20;78.20
7708;DHT22;3896;48.758;8.888;2023-02-27T04:12:34;-2.30;77.80
7708;DHT22;3896;48.758;8.888;2023-02-27T04:17:42;-2.30;78.30
7708;DHT22;3896;48.758;8.888;2023-02-27T04:26:08;-2.40;78.40
7708;DHT22;3896;48.758;8.888;2023-02-27T04:28:45;-2.40;78.60
7708;DHT22;3896;48.758;8.888;2023-02-27T04:31:19;-2.40;79.00
7708;DHT22;3896;48.758;8.888;2023-02-27T04:36:36;-2.50;79.20
7708;DHT22;3896;48.758;8.888;2023-02-27T04:39:07;-2.50;79.60
7708;DHT22;3896;48.758;8.888;2023-02-27T04:41:38;-2.50;79.80
7708;DHT22;3896;48.758;8.888;2023-02-27T04:44:07;-2.50;79.90
7708;DHT22;3896;48.758;8.888;2023-02-27T04:46:35;-2.60;80.00
7708;DHT22;3896;48.758;8.888;2023-02-27T04:49:13;-2.50;80.10
7708;DHT22;3896;48.758;8.888;2023-02-27T04:54:24;-2.60;80.00
7708;DHT22;3896;48.758;8.888;2023-02-27T04:56:54;-2.60;80.10
7708;DHT22;3896;48.758;8.888;2023-02-27T04:59:30;-2.70;80.20
7708;DHT22;3896;48.758;8.888;2023-02-27T05:04:34;-2.80;79.80
7708;DHT22;3896;48.758;8.888;2023-02-27T05:07:02;-2.80;79.70
7708;DHT22;3896;48.758;8.888;2023-02-27T05:09:39;-2.80;79.70
7708;DHT22;3896;48.758;8.888;2023-02-27T05:12:27;-2.90;79.80
7708;DHT22;3896;48.758;8.888;2023-02-27T05:15:08;-2.90;79.50
7708;DHT22;3896;48.758;8.888;2023-02-27T05:17:40;-2.90;79.60
7708;DHT22;3896;48.758;8.888;2023-02-27T05:20:07;-3.00;79.70
7708;DHT22;3896;48.758;8.888;2023-02-27T05:22:41;-3.00;79.60
7708;DHT22;3896;48.758;8.888;2023-02-27T05:27:50;-3.00;79.80
7708;DHT22;3896;48.758;8.888;2023-02-27T05:32:56;-3.10;79.80
7708;DHT22;3896;48.758;8.888;2023-02-27T05:35:37;-3.10;79.90
7708;DHT22;3896;48.758;8.888;2023-02-27T05:38:13;-3.10;79.90
7708;DHT22;3896;48.758;8.888;2023-02-27T05:40:44;-3.10;80.00
7708;DHT22;3896;48.758;8.888;2023-02-27T05:45:47;-3.20;80.40
7708;DHT22;3896;48.758;8.888;2023-02-27T05:48:24;-3.30;80.40
7708;DHT22;3896;48.758;8.888;2023-02-27T05:50:51;-3.30;80.70
7708;DHT22;3896;48.758;8.888;2023-02-27T05:53:20;-3.30;80.90
7708;DHT22;3896;48.758;8.888;2023-02-27T05:55:50;-3.30;81.00
7708;DHT22;3896;48.758;8.888;2023-02-27T05:58:26;-3.30;81.40
7708;DHT22;3896;48.758;8.888;2023-02-27T06:00:57;-3.30;81.50
7708;DHT22;3896;48.758;8.888;2023-02-27T06:03:27;-3.30;81.70
7708;DHT22;3896;48.758;8.888;2023-02-27T06:05:54;-3.30;82.00
7708;DHT22;3896;48.758;8.888;2023-02-27T06:08:22;-3.30;82.30
7708;DHT22;3896;48.758;8.888;2023-02-27T06:10:47;-3.30;82.40
7708;DHT22;3896;48.758;8.888;2023-02-27T06:13:15;-3.30;82.70
7708;DHT22;3896;48.758;8.888;2023-02-27T06:15:42;-3.30;82.50
7708;DHT22;3896;48.758;8.888;2023-02-27T06:18:09;-3.30;82.80
7708;DHT22;3896;48.758;8.888;2023-02-27T06:20:35;-3.30;82.80
7708;DHT22;3896;48.758;8.888;2023-02-27T06:23:00;-3.30;83.00
7708;DHT22;3896;48.758;8.888;2023-02-27T06:25:26;-3.30;83.20
7708;DHT22;3896;48.758;8.888;2023-02-27T06:27:51;-3.30;83.50
7708;DHT22;3896;48.758;8.888;2023-02-27T06:30:19;-3.30;83.80
7708;DHT22;3896;48.758;8.888;2023-02-27T06:32:44;-3.30;83.90
7708;DHT22;3896;48.758;8.888;2023-02-27T06:35:10;-3.30;84.10
7708;DHT22;3896;48.758;8.888;2023-02-27T06:37:35;-3.30;84.20
7708;DHT22;3896;48.758;8.888;2023-02-27T06:40:01;-3.30;84.70
7708;DHT22;3896;48.758;8.888;2023-02-27T06:42:26;-3.30;84.80
7708;DHT22;3896;48.758;8.888;2023-02-27T06:44:52;-3.30;85.10
7708;DHT22;3896;48.758;8.888;2023-02-27T06:47:18;-3.30;85.30
7708;DHT22;3896;48.758;8.888;2023-02-27T06:49:44;-3.30;85.60
7708;DHT22;3896;48.758;8.888;2023-02-27T06:52:09;-3.30;86.00
7708;DHT22;3896;48.758;8.888;2023-02-27T06:54:35;-3.30;86.00
7708;DHT22;3896;48.758;8.888;2023-02-27T06:57:00;-3.30;86.40
7708;DHT22;3896;48.758;8.888;2023-02-27T06:59:26;-3.20;86.80
7708;DHT22;3896;48.758;8.888;2023-02-27T07:01:51;-3.20;87.40
7708;DHT22;3896;48.758;8.888;2023-02-27T07:04:17;-3.10;87.80
7708;DHT22;3896;48.758;8.888;2023-02-27T07:06:43;-3.10;88.20
7708;DHT22;3896;48.758;8.888;2023-02-27T07:09:08;-3.00;89.60
7708;DHT22;3896;48.758;8.888;2023-02-27T07:11:34;-3.00;89.40
7708;DHT22;3896;48.758;8.888;2023-02-27T07:13:59;-3.00;89.70
7708;DHT22;3896;48.758;8.888;2023-02-27T07:16:25;-2.90;90.00
7708;DHT22;3896;48.758;8.888;2023-02-27T07:18:51;-2.90;90.20
7708;DHT22;3896;48.758;8.888;2023-02-27T07:21:16;-2.80;90.30
7708;DHT22;3896;48.758;8.888;2023-02-27T07:23:42;-2.70;90.50
7708;DHT22;3896;48.758;8.888;2023-02-27T07:26:08;-2.70;90.50
7708;DHT22;3896;48.758;8.888;2023-02-27T07:28:33;-2.60;90.80
7708;DHT22;3896;48.758;8.888;2023-02-27T07:31:00;-2.60;91.00
7708;DHT22;3896;48.758;8.888;2023-02-27T07:33:26;-2.50;91.30
7708;DHT22;3896;48.758;8.888;2023-02-27T07:35:52;-2.40;91.60
7708;DHT22;3896;48.758;8.888;2023-02-27T07:38:18;-2.40;92.00
7708;DHT22;3896;48.758;8.888;2023-02-27T07:40:45;-2.30;92.30
7708;DHT22;3896;48.758;8.888;2023-02-27T07:43:11;-2.20;92.50
7708;DHT22;3896;48.758;8.888;2023-02-27T07:45:36;-2.10;92.70
7708;DHT22;3896;48.758;8.888;2023-02-27T07:48:02;-2.00;92.90
7708;DHT22;3896;48.758;8.888;2023-02-27T07:50:27;-1.90;93.20
7708;DHT22;3896;48.758;8.888;2023-02-27T07:52:53;-1.90;93.30
7708;DHT22;3896;48.758;8.888;2023-02-27T07:55:19;-1.80;93.40
7708;DHT22;3896;48.758;8.888;2023-02-27T07:57:44;-1.70;93.50
7708;DHT22;3896;48.758;8.888;2023-02-27T08:00:10;-1.60;93.70
7708;DHT22;3896;48.758;8.888;2023-02-27T08:02:36;-1.50;93.60
7708;DHT22;3896;48.758;8.888;2023-02-27T08:05:02;-1.40;93.60
7708;DHT22;3896;48.758;8.888;2023-02-27T08:07:28;-1.30;93.40
7708;DHT22;3896;48.758;8.888;2023-02-27T08:09:53;-1.30;93.30
7708;DHT22;3896;48.758;8.888;2023-02-27T08:12:19;-1.10;93.30
7708;DHT22;3896;48.758;8.888;2023-02-27T08:14:44;-1.10;93.00
7708;DHT22;3896;48.758;8.888;2023-02-27T08:17:10;-1.00;92.90
7708;DHT22;3896;48.758;8.888;2023-02-27T08:19:36;-0.90;92.70
7708;DHT22;3896;48.758;8.888;2023-02-27T08:22:01;-0.80;92.50
7708;DHT22;3896;48.758;8.888;2023-02-27T08:24:28;-0.70;92.20
7708;DHT22;3896;48.758;8.888;2023-02-27T08:26:53;-0.60;91.90
7708;DHT22;3896;48.758;8.888;2023-02-27T08:29:19;-0.50;91.60
7708;DHT22;3896;48.758;8.888;2023-02-27T08:31:45;-0.40;91.20
7708;DHT22;3896;48.758;8.888;2023-02-27T08:34:11;-0.30;91.00
7708;DHT22;3896;48.758;8.888;2023-02-27T08:36:38;-0.20;90.80
7708;DHT22;3896;48.758;8.888;2023-02-27T08:39:05;-0.10;90.40
7708;DHT22;3896;48.758;8.888;2023-02-27T08:41:31;0.00;90.10
7708;DHT22;3896;48.758;8.888;2023-02-27T08:43:56;0.10;89.80
7708;DHT22;3896;48.758;8.888;2023-02-27T08:46:22;0.20;89.60
7708;DHT22;3896;48.758;8.888;2023-02-27T08:48:48;0.30;89.10
7708;DHT22;3896;48.758;8.888;2023-02-27T08:51:13;0.50;88.20
7708;DHT22;3896;48.758;8.888;2023-02-27T08:53:40;0.60;87.20
7708;DHT22;3896;48.758;8.888;2023-02-27T08:56:06;0.70;86.50
7708;DHT22;3896;48.758;8.888;2023-02-27T08:58:31;0.80;85.60
7708;DHT22;3896;48.758;8.888;2023-02-27T09:00:57;0.90;85.40
7708;DHT22;3896;48.758;8.888;2023-02-27T09:03:22;1.10;84.40
7708;DHT22;3896;48.758;8.888;2023-02-27T09:05:53;1.20;83.90
7708;DHT22;3896;48.758;8.888;2023-02-27T09:08:19;1.30;85.70
7708;DHT22;3896;48.758;8.888;2023-02-27T09:10:44;1.50;83.70
7708;DHT22;3896;48.758;8.888;2023-02-27T09:13:10;1.70;82.90
7708;DHT22;3896;48.758;8.888;2023-02-27T09:15:35;1.80;82.00
7708;DHT22;3896;48.758;8.888;2023-02-27T09:18:02;1.90;80.80
7708;DHT22;3896;48.758;8.888;2023-02-27T09:20:32;2.00;79.70
7708;DHT22;3896;48.758;8.888;2023-02-27T09:22:58;2.10;79.70
7708;DHT22;3896;48.758;8.888;2023-02-27T09:25:24;2.20;79.30
7708;DHT22;3896;48.758;8.888;2023-02-27T09:27:50;2.30;78.10
7708;DHT22;3896;48.758;8.888;2023-02-27T09:30:15;2.40;77.30
7708;DHT22;3896;48.758;8.888;2023-02-27T09:32:41;2.60;77.40
7708;DHT22;3896;48.758;8.888;2023-02-27T09:35:07;2.60;76.70
7708;DHT22;3896;48.758;8.888;2023-02-27T09:37:34;2.80;75.80
7708;DHT22;3896;48.758;8.888;2023-02-27T09:39:59;2.90;75.30
7708;DHT22;3896;48.758;8.888;2023-02-27T09:42:32;3.00;76.80
7708;DHT22;3896;48.758;8.888;2023-02-27T09:45:04;3.20;75.50
7708;DHT22;3896;48.758;8.888;2023-02-27T09:47:40;3.30;74.60
7708;DHT22;3896;48.758;8.888;2023-02-27T09:50:37;3.40;73.20
7708;DHT22;3896;48.758;8.888;2023-02-27T09:53:08;3.50;72.10
7708;DHT22;3896;48.758;8.888;2023-02-27T09:55:38;3.60;71.30
7708;DHT22;3896;48.758;8.888;2023-02-27T10:00:59;3.80;69.70
7708;DHT22;3896;48.758;8.888;2023-02-27T10:03:38;3.90;69.40
7708;DHT22;3896;48.758;8.888;2023-02-27T10:08:57;4.10;67.30
7708;DHT22;3896;48.758;8.888;2023-02-27T10:11:56;4.20;66.80
7708;DHT22;3896;48.758;8.888;2023-02-27T10:17:18;4.40;66.50
7708;DHT22;3896;48.758;8.888;2023-02-27T10:19:47;4.60;66.50
7708;DHT22;3896;48.758;8.888;2023-02-27T10:22:22;4.70;65.20
7708;DHT22;3896;48.758;8.888;2023-02-27T10:24:56;4.80;63.80
7708;DHT22;3896;48.758;8.888;2023-02-27T10:27:24;4.90;62.70
7708;DHT22;3896;48.758;8.888;2023-02-27T10:29:52;5.00;61.90
7708;DHT22;3896;48.758;8.888;2023-02-27T10:32:31;5.10;61.50
7708;DHT22;3896;48.758;8.888;2023-02-27T10:35:11;5.10;61.20
7708;DHT22;3896;48.758;8.888;2023-02-27T10:37:47;5.20;60.60
7708;DHT22;3896;48.758;8.888;2023-02-27T10:40:14;5.30;60.10
7708;DHT22;3896;48.758;8.888;2023-02-27T10:42:41;5.40;60.30
7708;DHT22;3896;48.758;8.888;2023-02-27T10:45:12;5.50;59.40
7708;DHT22;3896;48.758;8.888;2023-02-27T10:47:39;5.60;59.60
7708;DHT22;3896;48.758;8.888;2023-02-27T10:50:23;5.70;59.00
7708;DHT22;3896;48.758;8.888;2023-02-27T10:52:50;5.70;58.60
7708;DHT22;3896;48.758;8.888;2023-02-27T10:55:28;5.90;58.50
7708;DHT22;3896;48.758;8.888;2023-02-27T10:57:56;5.90;58.20
7708;DHT22;3896;48.758;8.888;2023-02-27T11:00:31;6.00;57.80
7708;DHT22;3896;48.758;8.888;2023-02-27T11:02:57;6.10;57.20
7708;DHT22;3896;48.758;8.888;2023-02-27T11:05:33;6.20;56.20
7708;DHT22;3896;48.758;8.888;2023-02-27T11:08:22;6.30;55.60
7708;DHT22;3896;48.758;8.888;2023-02-27T11:11:01;6.30;55.40
7708;DHT22;3896;48.758;8.888;2023-02-27T11:13:30;6.40;55.40
7708;DHT22;3896;48.758;8.888;2023-02-27T11:18:34;6.50;54.50
7708;DHT22;3896;48.758;8.888;2023-02-27T11:21:17;6.60;54.70
7708;DHT22;3896;48.758;8.888;2023-02-27T11:23:55;6.70;54.80
7708;DHT22;3896;48.758;8.888;2023-02-27T11:31:37;7.10;54.90
7708;DHT22;3896;48.758;8.888;2023-02-27T11:34:04;7.40;54.40
7708;DHT22;3896;48.758;8.888;2023-02-27T11:37:03;7.40;53.60
7708;DHT22;3896;48.758;8.888;2023-02-27T11:39:36;7.50;54.10
7708;DHT22;3896;48.758;8.888;2023-02-27T11:42:14;7.70;53.00
7708;DHT22;3896;48.758;8.888;2023-02-27T11:44:50;7.70;52.70
7708;DHT22;3896;48.758;8.888;2023-02-27T11:47:46;7.90;52.00
7708;DHT22;3896;48.758;8.888;2023-02-27T11:56:00;8.10;50.00
7708;DHT22;3896;48.758;8.888;2023-02-27T11:58:32;8.20;50.10
7708;DHT22;3896;48.758;8.888;2023-02-27T12:01:07;8.20;50.20
7708;DHT22;3896;48.758;8.888;2023-02-27T12:03:58;8.20;50.20
7708;DHT22;3896;48.758;8.888;2023-02-27T12:06:30;8.20;49.10
7708;DHT22;3896;48.758;8.888;2023-02-27T12:09:03;8.30;48.10
7708;DHT22;3896;48.758;8.888;2023-02-27T12:11:34;8.10;47.60
7708;DHT22;3896;48.758;8.888;2023-02-27T12:14:15;8.20;49.00
7708;DHT22;3896;48.758;8.888;2023-02-27T12:16:49;8.20;49.20
7708;DHT22;3896;48.758;8.888;2023-02-27T12:19:23;8.30;48.70
7708;DHT22;3896;48.758;8.888;2023-02-27T12:21:58;8.30;48.20
7708;DHT22;3896;48.758;8.888;2023-02-27T12:24:40;8.30;47.80
7708;DHT22;3896;48.758;8.888;2023-02-27T12:27:19;8.20;47.50
7708;DHT22;3896;48.758;8.888;2023-02-27T12:29:54;8.20;47.60
7708;DHT22;3896;48.758;8.888;2023-02-27T12:32:29;8.20;46.90
7708;DHT22;3896;48.758;8.888;2023-02-27T12:35:01;8.30;47.90
7708;DHT22;3896;48.758;8.888;2023-02-27T12:37:30;8.30;48.40
7708;DHT22;3896;48.758;8.888;2023-02-27T12:39:59;8.40;47.90
7708;DHT22;3896;48.758;8.888;2023-02-27T12:45:38;8.40;47.20
7708;DHT22;3896;48.758;8.888;2023-02-27T12:57:01;8.00;47.00
7708;DHT22;3896;48.758;8.888;2023-02-27T13:03:28;8.00;47.50
7708;DHT22;3896;48.758;8.888;2023-02-27T13:05:58;8.00;47.60
7708;DHT22;3896;48.758;8.888;2023-02-27T13:11:24;7.90;48.00
7708;DHT22;3896;48.758;8.888;2023-02-27T13:14:05;7.90;48.00
7708;DHT22;3896;48.758;8.888;2023-02-27T13:16:36;7.90;48.10
7708;DHT22;3896;48.758;8.888;2023-02-27T13:19:19;7.90;48.70
7708;DHT22;3896;48.758;8.888;2023-02-27T13:24:26;7.90;48.50
7708;DHT22;3896;48.758;8.888;2023-02-27T13:29:19;7.90;49.00
7708;DHT22;3896;48.758;8.888;2023-02-27T13:34:40;7.90;48.80
7708;DHT22;3896;48.758;8.888;2023-02-27T13:37:08;7.80;48.90
7708;DHT22;3896;48.758;8.888;2023-02-27T13:44:59;7.70;48.80
7708;DHT22;3896;48.758;8.888;2023-02-27T13:49:59;7.60;48.60
7708;DHT22;3896;48.758;8.888;2023-02-27T13:52:33;7.50;48.60
7708;DHT22;3896;48.758;8.888;2023-02-27T13:55:01;7.60;48.70
7708;DHT22;3896;48.758;8.888;2023-02-27T13:57:32;7.60;48.70
7708;DHT22;3896;48.758;8.888;2023-02-27T14:00:19;7.60;48.50
7708;DHT22;3896;48.758;8.888;2023-02-27T14:03:05;7.60;48.60
7708;DHT22;3896;48.758;8.888;2023-02-27T14:08:06;7.40;48.00
7708;DHT22;3896;48.758;8.888;2023-02-27T14:10:33;7.30;48.20
7708;DHT22;3896;48.758;8.888;2023-02-27T14:13:00;7.30;48.60
7708;DHT22;3896;48.758;8.888;2023-02-27T14:18:01;7.20;48.60
7708;DHT22;3896;48.758;8.888;2023-02-27T14:26:04;7.10;49.10
7708;DHT22;3896;48.758;8.888;2023-02-27T14:28:53;7.10;48.80
7708;DHT22;3896;48.758;8.888;2023-02-27T14:31:31;7.00;48.70
7708;DHT22;3896;48.758;8.888;2023-02-27T14:33:59;7.00;48.50
7708;DHT22;3896;48.758;8.888;2023-02-27T14:36:35;6.90;48.40
7708;DHT22;3896;48.758;8.888;2023-02-27T14:39:05;6.90;48.50
7708;DHT22;3896;48.758;8.888;2023-02-27T14:44:25;6.70;48.30
7708;DHT22;3896;48.758;8.888;2023-02-27T14:46:56;6.70;48.60
7708;DHT22;3896;48.758;8.888;2023-02-27T14:49:28;6.60;48.20
7708;DHT22;3896;48.758;8.888;2023-02-27T14:51:55;6.60;48.30
7708;DHT22;3896;48.758;8.888;2023-02-27T14:54:25;6.50;48.00
7708;DHT22;3896;48.758;8.888;2023-02-27T14:57:02;6.40;48.30
7708;DHT22;3896;48.758;8.888;2023-02-27T14:59:32;6.40;48.60
7708;DHT22;3896;48.758;8.888;2023-02-27T15:01:59;6.40;48.90
7708;DHT22;3896;48.758;8.888;2023-02-27T15:04:31;6.40;48.70
7708;DHT22;3896;48.758;8.888;2023-02-27T15:06:58;6.30;48.40
7708;DHT22;3896;48.758;8.888;2023-02-27T15:11:56;6.30;48.60
7708;DHT22;3896;48.758;8.888;2023-02-27T15:14:55;6.40;48.60
7708;DHT22;3896;48.758;8.888;2023-02-27T15:17:25;6.40;48.90
7708;DHT22;3896;48.758;8.888;2023-02-27T15:19:56;6.40;48.60
7708;DHT22;3896;48.758;8.888;2023-02-27T15:22:26;6.30;48.80
7708;DHT22;3896;48.758;8.888;2023-02-27T15:24:59;6.30;48.70
7708;DHT22;3896;48.758;8.888;2023-02-27T15:27:26;6.30;48.50
7708;DHT22;3896;48.758;8.888;2023-02-27T15:29:58;6.20;48.20
7708;DHT22;3896;48.758;8.888;2023-02-27T15:32:30;6.20;48.60
7708;DHT22;3896;48.758;8.888;2023-02-27T15:34:59;6.20;48.70
7708;DHT22;3896;48.758;8.888;2023-02-27T15:37:32;6.10;48.80
7708;DHT22;3896;48.758;8.888;2023-02-27T15:40:00;6.10;48.60
7708;DHT22;3896;48.758;8.888;2023-02-27T15:42:31;6.00;48.60
7708;DHT22;3896;48.758;8.888;2023-02-27T15:44:59;5.90;48.40
7708;DHT22;3896;48.758;8.888;2023-02-27T15:47:28;5.80;48.70
7708;DHT22;3896;48.758;8.888;2023-02-27T15:49:59;5.80;48.60
7708;DHT22;3896;48.758;8.888;2023-02-27T15:52:31;5.70;48.80
7708;DHT22;3896;48.758;8.888;2023-02-27T15:55:08;5.70;48.90
7708;DHT22;3896;48.758;8.888;2023-02-27T15:57:34;5.70;49.00
7708;DHT22;3896;48.758;8.888;2023-02-27T16:00:01;5.60;48.90
7708;DHT22;3896;48.758;8.888;2023-02-27T16:02:37;5.60;48.80
7708;DHT22;3896;48.758;8.888;2023-02-27T16:05:04;5.50;48.70
7708;DHT22;3896;48.758;8.888;2023-02-27T16:07:38;5.40;48.50
7708;DHT22;3896;48.758;8.888;2023-02-27T16:10:07;5.30;48.50
7708;DHT22;3896;48.758;8.888;2023-02-27T16:12:36;5.30;48.70
7708;DHT22;3896;48.758;8.888;2023-02-27T16:15:25;5.30;48.70
7708;DHT22;3896;48.758;8.888;2023-02-27T16:18:00;5.20;48.70
7708;DHT22;3896;48.758;8.888;2023-02-27T16:20:47;5.10;48.80
7708;DHT22;3896;48.758;8.888;2023-02-27T16:23:23;5.00;48.80
7708;DHT22;3896;48.758;8.888;2023-02-27T16:26:28;5.00;48.90
7708;DHT22;3896;48.758;8.888;2023-02-27T16:29:05;4.90;48.70
7708;DHT22;3896;48.758;8.888;2023-02-27T16:31:39;4.90;48.90
7708;DHT22;3896;48.758;8.888;2023-02-27T16:36:39;4.80;49.20
7708;DHT22;3896;48.758;8.888;2023-02-27T16:39:12;4.70;49.30
7708;DHT22;3896;48.758;8.888;2023-02-27T16:41:38;4.70;49.10
7708;DHT22;3896;48.758;8.888;2023-02-27T16:44:04;4.60;49.30
7708;DHT22;3896;48.758;8.888;2023-02-27T16:46:29;4.60;49.70
7708;DHT22;3896;48.758;8.888;2023-02-27T16:48:58;4.60;49.60
7708;DHT22;3896;48.758;8.888;2023-02-27T16:51:25;4.50;49.70
7708;DHT22;3896;48.758;8.888;2023-02-27T16:53:53;4.50;49.60
7708;DHT22;3896;48.758;8.888;2023-02-27T16:56:19;4.50;49.70
7708;DHT22;3896;48.758;8.888;2023-02-27T16:58:47;4.40;49.90
7708;DHT22;3896;48.758;8.888;2023-02-27T17:01:13;4.40;49.80
7708;DHT22;3896;48.758;8.888;2023-02-27T17:03:42;4.30;49.70
7708;DHT22;3896;48.758;8.888;2023-02-27T17:06:09;4.30;49.60
7708;DHT22;3896;48.758;8.888;2023-02-27T17:08:41;4.30;49.70
7708;DHT22;3896;48.758;8.888;2023-02-27T17:11:07;4.30;49.50
7708;DHT22;3896;48.758;8.888;2023-02-27T17:13:33;4.20;49.70
7708;DHT22;3896;48.758;8.888;2023-02-27T17:16:04;4.20;49.80
7708;DHT22;3896;48.758;8.888;2023-02-27T17:18:30;4.10;49.50
7708;DHT22;3896;48.758;8.888;2023-02-27T17:20:59;4.10;49.50
7708;DHT22;3896;48.758;8.888;2023-02-27T17:23:25;4.00;49.80
7708;DHT22;3896;48.758;8.888;2023-02-27T17:25:54;4.00;50.00
7708;DHT22;3896;48.758;8.888;2023-02-27T17:28:20;4.00;49.90
7708;DHT22;3896;48.758;8.888;2023-02-27T17:30:47;4.00;49.90
7708;DHT22;3896;48.758;8.888;2023-02-27T17:33:13;3.90;49.80
7708;DHT22;3896;48.758;8.888;2023-02-27T17:35:39;3.90;50.00
7708;DHT22;3896;48.758;8.888;2023-02-27T17:38:04;3.80;49.80
7708;DHT22;3896;48.758;8.888;2023-02-27T17:40:30;3.80;49.80
7708;DHT22;3896;48.758;8.888;2023-02-27T17:42:55;3.70;49.80
7708;DHT22;3896;48.758;8.888;2023-02-27T17:45:21;3.70;49.80
7708;DHT22;3896;48.758;8.888;2023-02-27T17:47:49;3.70;49.90
7708;DHT22;3896;48.758;8.888;2023-02-27T17:50:14;3.60;49.60
7708;DHT22;3896;48.758;8.888;2023-02-27T17:52:40;3.60;49.90
7708;DHT22;3896;48.758;8.888;2023-02-27T17:55:06;3.50;49.70
7708;DHT22;3896;48.758;8.888;2023-02-27T17:57:37;3.50;49.80
7708;DHT22;3896;48.758;8.888;2023-02-27T18:00:04;3.40;49.90
7708;DHT22;3896;48.758;8.888;2023-02-27T18:02:30;3.40;50.00
7708;DHT22;3896;48.758;8.888;2023-02-27T18:04:56;3.40;50.10
7708;DHT22;3896;48.758;8.888;2023-02-27T18:07:23;3.40;50.10
7708;DHT22;3896;48.758;8.888;2023-02-27T18:09:48;3.40;50.30
7708;DHT22;3896;48.758;8.888;2023-02-27T18:12:14;3.40;50.50
7708;DHT22;3896;48.758;8.888;2023-02-27T18:14:40;3.40;50.50
7708;DHT22;3896;48.758;8.888;2023-02-27T18:17:05;3.30;50.60
7708;DHT22;3896;48.758;8.888;2023-02-27T18:19:38;3.30;50.70
7708;DHT22;3896;48.758;8.888;2023-02-27T18:22:04;3.30;50.70
7708;DHT22;3896;48.758;8.888;2023-02-27T18:24:29;3.30;50.90
7708;DHT22;3896;48.758;8.888;2023-02-27T18:26:55;3.30;50.90
7708;DHT22;3896;48.758;8.888;2023-02-27T18:29:20;3.30;51.00
7708;DHT22;3896;48.758;8.888;2023-02-27T18:31:46;3.30;51.10
7708;DHT22;3896;48.758;8.888;2023-02-27T18:34:14;3.20;51.00
7708;DHT22;3896;48.758;8.888;2023-02-27T18:36:40;3.20;51.20
7708;DHT22;3896;48.758;8.888;2023-02-27T18:39:06;3.20;51.10